createdAt,value
2022-08-10T00:01:55.558Z,6.10
2022-08-10T00:04:26.423Z,5.75
2022-08-10T00:06:59.201Z,8.52
2022-08-10T00:09:28.277Z,7.95
2022-08-10T00:11:57.368Z,5.18
2022-08-10T00:14:26.494Z,7.20
2022-08-10T00:16:55.645Z,5.95
2022-08-10T00:19:28.594Z,5.28
2022-08-10T00:22:17.705Z,6.22
2022-08-10T00:24:46.858Z,5.78
2022-08-10T00:27:57.933Z,6.47
2022-08-10T00:30:05.963Z,9.85
2022-08-10T00:32:35.183Z,9.63
2022-08-10T00:35:06.669Z,8.07
2022-08-10T00:40:08.225Z,6.07
2022-08-10T00:42:37.408Z,6.30
2022-08-10T00:45:07.511Z,6.60
2022-08-10T00:47:37.854Z,6.38
2022-08-10T00:50:10.092Z,7.38
2022-08-10T00:52:40.351Z,5.78
2022-08-10T00:55:09.934Z,5.47
2022-08-10T00:57:40.647Z,5.90
2022-08-10T01:00:10.977Z,5.00
2022-08-10T01:02:40.728Z,7.03
2022-08-10T01:05:14.503Z,5.60
2022-08-10T01:08:04.284Z,7.47
2022-08-10T01:10:42.809Z,6.88
2022-08-10T01:13:17.972Z,6.28
2022-08-10T01:15:55.482Z,5.57
2022-08-10T01:18:37.811Z,6.43
2022-08-10T01:21:35.403Z,5.70
2022-08-10T01:24:17.912Z,6.18
2022-08-10T01:27:14.606Z,5.75
2022-08-10T01:30:07.988Z,5.03
2022-08-10T01:32:48.946Z,4.75
2022-08-10T01:35:25.803Z,5.15
2022-08-10T01:38:03.611Z,5.03
2022-08-10T01:40:36.434Z,5.00
2022-08-10T01:43:09.907Z,6.55
2022-08-10T01:45:46.299Z,5.25
2022-08-10T01:48:31.409Z,4.35
2022-08-10T01:51:10.387Z,4.32
2022-08-10T01:53:44.220Z,12.02
2022-08-10T01:56:16.614Z,5.38
2022-08-10T01:58:48.849Z,6.57
2022-08-10T02:01:24.470Z,5.90
2022-08-10T02:04:03.979Z,5.95
2022-08-10T02:09:09.068Z,3.92
2022-08-10T02:12:06.435Z,5.22
2022-08-10T02:14:34.645Z,6.65
2022-08-10T02:17:08.939Z,4.30
2022-08-10T02:20:03.299Z,6.30
2022-08-10T02:22:36.027Z,5.93
2022-08-10T02:25:09.650Z,5.47
2022-08-10T02:27:59.403Z,4.03
2022-08-10T02:30:30.270Z,5.70
2022-08-10T02:33:02.666Z,5.47
2022-08-10T02:35:40.552Z,4.78
2022-08-10T02:38:58.299Z,6.40
2022-08-10T02:45:13.076Z,5.32
2022-08-10T02:45:21.692Z,5.15
2022-08-10T02:47:18.793Z,4.15
2022-08-10T02:49:55.869Z,7.22
2022-08-10T02:52:30.571Z,4.03
2022-08-10T02:55:17.224Z,4.70
2022-08-10T02:58:16.615Z,4.07
2022-08-10T03:00:46.635Z,4.55
2022-08-10T03:03:21.514Z,5.72
2022-08-10T03:05:56.696Z,5.53
2022-08-10T03:08:29.764Z,4.60
2022-08-10T03:11:03.370Z,4.45
2022-08-10T03:13:34.912Z,4.53
2022-08-10T03:16:06.250Z,5.50
2022-08-10T03:18:36.333Z,6.00
2022-08-10T03:21:11.819Z,7.32
2022-08-10T03:23:44.128Z,4.03
2022-08-10T03:26:20.321Z,6.63
2022-08-10T03:28:50.123Z,4.57
2022-08-10T03:31:19.806Z,4.20
2022-08-10T03:33:49.412Z,4.80
2022-08-10T03:36:43.573Z,5.70
2022-08-10T03:39:09.340Z,4.18
2022-08-10T03:41:41.807Z,7.30
2022-08-10T03:44:26.243Z,4.45
2022-08-10T03:46:56.488Z,4.70
2022-08-10T03:49:28.129Z,4.40
2022-08-10T03:51:59.778Z,6.35
2022-08-10T03:54:29.342Z,5.78
2022-08-10T03:56:58.557Z,5.65
2022-08-10T03:59:28.131Z,6.80
2022-08-10T04:02:44.495Z,6.60
2022-08-10T04:04:49.327Z,6.40
2022-08-10T04:07:20.267Z,6.60
2022-08-10T04:09:55.047Z,8.52
2022-08-10T04:12:24.914Z,4.63
2022-08-10T04:14:54.140Z,4.57
2022-08-10T04:18:04.194Z,5.93
2022-08-10T04:20:19.775Z,7.03
2022-08-10T04:22:54.633Z,4.05
2022-08-10T04:25:25.318Z,4.97
2022-08-10T04:27:55.397Z,6.18
2022-08-10T04:30:27.832Z,5.25
2022-08-10T04:32:59.855Z,5.60
2022-08-10T04:35:30.322Z,6.45
2022-08-10T04:38:03.333Z,7.22
2022-08-10T04:40:32.592Z,6.15
2022-08-10T04:43:08.943Z,7.18
2022-08-10T04:45:49.796Z,6.07
2022-08-10T04:48:40.414Z,5.93
2022-08-10T04:51:18.320Z,10.48
2022-08-10T04:54:06.168Z,5.68
2022-08-10T04:56:37.475Z,4.57
2022-08-10T04:59:07.620Z,4.68
2022-08-10T05:01:37.744Z,5.05
2022-08-10T05:04:36.093Z,7.03
2022-08-10T05:07:16.323Z,6.07
2022-08-10T05:10:02.867Z,6.03
2022-08-10T05:12:36.382Z,4.50
2022-08-10T05:15:08.498Z,4.45
2022-08-10T05:17:38.322Z,5.40
2022-08-10T05:20:09.570Z,6.22
2022-08-10T05:22:41.785Z,5.53
2022-08-10T05:25:14.246Z,5.18
2022-08-10T05:27:44.761Z,5.93
2022-08-10T05:30:17.014Z,5.90
2022-08-10T05:32:56.209Z,5.43
2022-08-10T05:35:55.105Z,4.72
2022-08-10T05:38:21.545Z,7.60
2022-08-10T05:40:52.229Z,5.93
2022-08-10T05:43:23.019Z,6.80
2022-08-10T05:46:16.757Z,5.38
2022-08-10T05:48:59.297Z,4.78
2022-08-10T05:51:31.139Z,6.20
2022-08-10T05:54:05.956Z,6.50
2022-08-10T05:56:54.191Z,7.32
2022-08-10T06:00:11.102Z,5.38
2022-08-10T06:02:31.235Z,6.10
2022-08-10T06:05:06.330Z,5.53
2022-08-10T06:07:39.071Z,5.35
2022-08-10T06:10:12.788Z,6.75
2022-08-10T06:12:55.630Z,5.78
2022-08-10T06:15:45.638Z,6.93
2022-08-10T06:18:16.266Z,4.63
2022-08-10T06:20:47.662Z,6.83
2022-08-10T06:26:11.037Z,6.28
2022-08-10T06:28:39.273Z,6.00
2022-08-10T06:31:10.602Z,3.92
2022-08-10T06:33:40.470Z,6.60
2022-08-10T06:36:10.693Z,3.60
2022-08-10T06:38:41.888Z,3.78
2022-08-10T06:41:19.991Z,4.35
2022-08-10T06:43:57.994Z,7.85
2022-08-10T06:46:29.534Z,4.55
2022-08-10T06:49:02.638Z,5.68
2022-08-10T06:51:35.501Z,6.90
2022-08-10T06:54:07.725Z,5.93
2022-08-10T06:56:50.924Z,6.32
2022-08-10T06:59:41.721Z,5.80
2022-08-10T07:02:14.228Z,5.93
2022-08-10T07:04:47.779Z,5.95
2022-08-10T07:07:21.620Z,4.05
2022-08-10T07:09:52.916Z,3.90
2022-08-10T07:12:25.485Z,4.72
2022-08-10T07:14:58.239Z,4.30
2022-08-10T07:17:28.894Z,5.25
2022-08-10T07:20:00.594Z,4.05
2022-08-10T07:23:50.818Z,4.93
2022-08-10T07:25:25.285Z,7.03
2022-08-10T07:27:58.545Z,6.40
2022-08-10T07:30:35.120Z,4.32
2022-08-10T07:33:05.933Z,4.25
2022-08-10T07:35:42.868Z,4.63
2022-08-10T07:38:22.207Z,3.40
2022-08-10T07:40:54.372Z,4.13
2022-08-10T07:45:59.017Z,4.22
2022-08-10T07:48:31.191Z,3.05
2022-08-10T07:51:02.915Z,5.63
2022-08-10T07:53:34.973Z,2.83
2022-08-10T07:56:17.000Z,5.85
2022-08-10T07:58:58.946Z,3.40
2022-08-10T08:01:33.734Z,3.72
2022-08-10T08:04:05.436Z,10.07
2022-08-10T08:06:41.952Z,4.07
2022-08-10T08:09:12.031Z,6.32
2022-08-10T08:11:44.505Z,5.25
2022-08-10T08:14:15.909Z,2.95
2022-08-10T08:24:07.518Z,4.70
2022-08-10T08:24:59.230Z,3.90
2022-08-10T08:27:29.673Z,2.30
2022-08-10T08:29:59.556Z,5.93
2022-08-10T08:32:32.915Z,5.85
2022-08-10T08:35:06.524Z,6.60
2022-08-10T08:38:29.954Z,5.75
2022-08-10T08:40:30.379Z,8.32
2022-08-10T08:43:25.494Z,5.88
2022-08-10T08:46:28.634Z,4.20
2022-08-10T08:50:07.536Z,4.93
2022-08-10T08:52:36.561Z,4.97
2022-08-10T08:56:03.884Z,6.70
2022-08-10T08:58:21.623Z,4.82
2022-08-10T09:00:58.992Z,5.22
2022-08-10T09:04:05.917Z,4.32
2022-08-10T09:07:39.275Z,5.47
2022-08-10T09:10:04.568Z,4.93
2022-08-10T09:12:44.877Z,6.05
2022-08-10T09:15:41.068Z,5.20
2022-08-10T09:18:19.196Z,7.32
2022-08-10T09:20:52.458Z,4.05
2022-08-10T09:24:01.694Z,3.90
2022-08-10T09:26:22.628Z,4.78
2022-08-10T09:29:11.750Z,4.53
2022-08-10T09:31:55.853Z,5.35
2022-08-10T09:36:26.172Z,5.15
2022-08-10T09:38:02.721Z,8.55
2022-08-10T09:40:58.963Z,6.82
2022-08-10T09:43:48.570Z,5.45
2022-08-10T09:46:27.658Z,10.05
2022-08-10T09:49:06.698Z,7.10
2022-08-10T09:51:47.064Z,9.40
2022-08-10T09:54:31.478Z,7.03
2022-08-10T09:57:41.523Z,6.55
2022-08-10T10:02:47.355Z,8.30
2022-08-10T10:05:28.444Z,7.47
2022-08-10T10:08:08.579Z,9.32
2022-08-10T10:10:47.529Z,8.77
2022-08-10T10:13:41.613Z,4.32
2022-08-10T10:16:29.950Z,5.43
2022-08-10T10:19:09.199Z,4.60
2022-08-10T10:21:55.047Z,9.02
2022-08-10T10:24:34.481Z,5.03
2022-08-10T10:27:16.487Z,6.18
2022-08-10T10:29:59.294Z,7.13
2022-08-10T10:32:42.681Z,6.13
2022-08-10T10:35:21.993Z,5.68
2022-08-10T10:38:01.276Z,7.53
2022-08-10T10:40:39.943Z,6.50
2022-08-10T10:43:22.406Z,5.78
2022-08-10T10:46:04.712Z,8.95
2022-08-10T10:48:41.568Z,7.47
2022-08-10T10:51:17.633Z,7.75
2022-08-10T10:53:53.385Z,9.23
2022-08-10T10:56:32.096Z,7.00
2022-08-10T10:59:33.318Z,9.15
2022-08-10T11:02:18.594Z,5.18
2022-08-10T11:04:59.150Z,6.57
2022-08-10T11:07:35.836Z,4.87
2022-08-10T11:10:32.414Z,5.50
2022-08-10T11:14:25.051Z,3.22
2022-08-10T11:16:09.991Z,5.88
2022-08-10T11:19:04.516Z,3.97
2022-08-10T11:21:44.156Z,4.97
2022-08-10T11:24:48.269Z,4.05
2022-08-10T11:27:31.572Z,1.88
2022-08-10T11:30:05.217Z,3.75
2022-08-10T11:32:48.402Z,8.30
2022-08-10T11:35:34.842Z,3.63
2022-08-10T11:38:31.924Z,6.07
2022-08-10T11:42:05.537Z,5.32
2022-08-10T11:44:09.512Z,6.03
2022-08-10T11:46:42.836Z,5.63
2022-08-10T11:49:14.856Z,3.78
2022-08-10T11:51:50.083Z,3.55
2022-08-10T11:54:27.056Z,1.70
2022-08-10T11:57:02.487Z,3.15
2022-08-10T11:59:57.994Z,2.60
2022-08-10T12:02:33.719Z,3.95
2022-08-10T12:05:08.054Z,4.60
2022-08-10T12:10:01.430Z,1.95
2022-08-10T12:10:33.782Z,2.03
2022-08-10T12:13:16.331Z,4.47
2022-08-10T12:15:54.735Z,4.40
2022-08-10T12:18:30.317Z,3.13
2022-08-10T12:21:03.986Z,3.85
2022-08-10T12:23:41.591Z,2.25
2022-08-10T12:26:16.041Z,2.63
2022-08-10T12:28:52.061Z,2.45
2022-08-10T12:31:27.984Z,2.03
2022-08-10T12:34:14.659Z,3.78
2022-08-10T12:36:48.187Z,6.55
2022-08-10T12:39:23.278Z,5.25
2022-08-10T12:41:57.988Z,3.63
2022-08-10T12:44:41.700Z,2.97
2022-08-10T12:47:21.415Z,2.28
2022-08-10T12:50:29.359Z,3.35
2022-08-10T12:52:53.638Z,3.28
2022-08-10T12:55:25.528Z,5.03
2022-08-10T12:57:57.378Z,4.95
2022-08-10T13:00:35.126Z,4.15
2022-08-10T13:03:07.725Z,2.25
2022-08-10T13:06:01.825Z,2.80
2022-08-10T13:08:56.200Z,3.60
2022-08-10T13:12:39.101Z,2.28
2022-08-10T13:14:24.299Z,3.47
2022-08-10T13:16:56.487Z,4.30
2022-08-10T13:19:54.489Z,3.65
2022-08-10T13:22:20.529Z,2.47
2022-08-10T13:24:55.647Z,1.48
2022-08-10T13:28:01.408Z,1.67
2022-08-10T13:30:33.427Z,3.05
2022-08-10T13:33:08.881Z,3.92
2022-08-10T13:35:38.741Z,2.33
2022-08-10T13:38:09.864Z,4.18
2022-08-10T13:40:40.777Z,4.95
2022-08-10T13:43:12.234Z,4.72
2022-08-10T13:45:47.820Z,3.40
2022-08-10T13:48:21.743Z,1.85
2022-08-10T13:50:52.769Z,1.92
2022-08-10T13:53:23.679Z,4.85
2022-08-10T13:55:57.409Z,4.63
2022-08-10T13:58:31.763Z,2.20
2022-08-10T14:01:02.842Z,3.85
2022-08-10T14:03:37.756Z,2.55
2022-08-10T14:06:08.858Z,2.45
2022-08-10T14:08:41.356Z,3.45
2022-08-10T14:11:15.716Z,4.75
2022-08-10T14:13:52.631Z,4.22
2022-08-10T14:16:22.378Z,4.25
2022-08-10T14:18:54.030Z,1.92
2022-08-10T14:21:23.463Z,5.60
2022-08-10T14:23:53.889Z,2.88
2022-08-10T14:26:27.192Z,6.43
2022-08-10T14:28:59.737Z,4.15
2022-08-10T14:31:33.827Z,7.40
2022-08-10T14:34:06.818Z,5.72
2022-08-10T14:36:43.398Z,6.72
2022-08-10T14:39:20.786Z,8.30
2022-08-10T14:42:03.854Z,6.50
2022-08-10T14:44:48.798Z,8.52
2022-08-10T14:48:03.244Z,7.47
2022-08-10T14:50:32.193Z,8.10
2022-08-10T14:53:09.665Z,7.93
2022-08-10T14:55:58.520Z,10.20
2022-08-10T14:58:34.125Z,6.78
2022-08-10T15:01:07.222Z,6.97
2022-08-10T15:03:59.160Z,8.82
2022-08-10T15:06:33.170Z,8.13
2022-08-10T15:09:05.547Z,5.45
2022-08-10T15:12:13.045Z,5.32
2022-08-10T15:14:43.118Z,9.57
2022-08-10T15:17:17.053Z,11.57
2022-08-10T15:20:02.353Z,12.25
2022-08-10T15:22:37.927Z,6.25
2022-08-10T15:25:18.661Z,7.30
2022-08-10T15:27:53.410Z,11.35
2022-08-10T15:30:31.593Z,6.70
2022-08-10T15:34:02.947Z,10.10
2022-08-10T15:36:35.057Z,5.07
2022-08-10T15:39:12.759Z,5.00
2022-08-10T15:41:58.679Z,7.28
2022-08-10T15:44:39.149Z,9.18
2022-08-10T15:47:12.311Z,10.88
2022-08-10T15:49:53.379Z,3.95
2022-08-10T15:52:39.968Z,6.68
2022-08-10T15:55:42.761Z,2.85
2022-08-10T15:58:14.077Z,4.65
2022-08-10T16:00:50.370Z,3.80
2022-08-10T16:03:27.366Z,3.88
2022-08-10T16:06:01.426Z,5.35
2022-08-10T16:08:56.667Z,2.75
2022-08-10T16:11:37.691Z,6.60
2022-08-10T16:14:15.211Z,5.32
2022-08-10T16:16:50.551Z,4.70
2022-08-10T16:19:25.158Z,2.78
2022-08-10T16:22:36.390Z,5.63
2022-08-10T16:24:58.455Z,2.95
2022-08-10T16:27:29.271Z,4.35
2022-08-10T16:30:02.426Z,2.92
2022-08-10T16:32:34.097Z,2.95
2022-08-10T16:35:09.351Z,3.75
2022-08-10T16:37:56.573Z,3.33
2022-08-10T16:40:30.390Z,4.90
2022-08-10T16:43:02.321Z,4.32
2022-08-10T16:45:35.712Z,3.50
2022-08-10T16:48:06.805Z,2.22
2022-08-10T16:50:41.922Z,3.15
2022-08-10T16:53:15.645Z,4.38
2022-08-10T16:55:50.646Z,3.65
2022-08-10T16:58:25.099Z,3.60
2022-08-10T17:00:55.313Z,4.57
2022-08-10T17:04:07.034Z,5.63
2022-08-10T17:06:23.667Z,5.13
2022-08-10T17:08:56.800Z,6.15
2022-08-10T17:11:33.627Z,5.40
2022-08-10T17:14:04.569Z,4.10
2022-08-10T17:16:39.853Z,3.55
2022-08-10T17:19:14.054Z,3.70
2022-08-10T17:21:51.345Z,2.38
2022-08-10T17:24:27.640Z,3.42
2022-08-10T17:26:59.076Z,3.08
2022-08-10T17:29:58.690Z,3.50
2022-08-10T17:32:31.394Z,3.35
2022-08-10T17:35:02.390Z,3.25
2022-08-10T17:37:37.602Z,4.10
2022-08-10T17:40:12.517Z,5.28
2022-08-10T17:42:42.285Z,3.17
2022-08-10T17:45:45.985Z,3.13
2022-08-10T17:48:09.473Z,2.13
2022-08-10T17:50:41.921Z,3.00
2022-08-10T17:53:16.781Z,4.03
2022-08-10T17:55:50.023Z,2.63
2022-08-10T17:58:21.292Z,3.72
2022-08-10T18:00:52.450Z,3.28
2022-08-10T18:03:25.473Z,4.38
2022-08-10T18:05:57.729Z,7.03
2022-08-10T18:08:29.757Z,2.60
2022-08-10T18:11:01.837Z,2.63
2022-08-10T18:13:55.363Z,3.35
2022-08-10T18:16:27.309Z,4.70
2022-08-10T18:19:00.588Z,3.78
2022-08-10T18:21:32.417Z,3.28
2022-08-10T18:24:04.976Z,4.35
2022-08-10T18:26:38.844Z,2.50
2022-08-10T18:29:10.901Z,5.32
2022-08-10T18:31:44.822Z,2.75
2022-08-10T18:34:20.957Z,2.47
2022-08-10T18:36:52.589Z,4.53
2022-08-10T18:39:25.531Z,5.03
2022-08-10T18:42:05.956Z,3.97
2022-08-10T18:44:39.088Z,4.53
2022-08-10T18:47:14.085Z,5.63
2022-08-10T18:50:00.095Z,4.45
2022-08-10T18:52:33.252Z,5.57
2022-08-10T18:55:13.934Z,3.90
2022-08-10T19:00:23.283Z,4.40
2022-08-10T19:03:12.097Z,5.03
2022-08-10T19:05:55.410Z,3.65
2022-08-10T19:08:57.321Z,3.15
2022-08-10T19:11:44.065Z,4.50
2022-08-10T19:14:19.381Z,3.85
2022-08-10T19:17:03.433Z,3.45
2022-08-10T19:19:41.295Z,4.22
2022-08-10T19:22:18.147Z,5.40
2022-08-10T19:24:55.759Z,4.03
2022-08-10T19:27:40.433Z,5.85
2022-08-10T19:30:16.363Z,4.53
2022-08-10T19:33:00.593Z,3.92
2022-08-10T19:36:04.231Z,4.25
2022-08-10T19:38:40.907Z,4.13
2022-08-10T19:41:32.488Z,5.22
2022-08-10T19:44:22.267Z,7.47
2022-08-10T19:47:03.349Z,2.53
2022-08-10T19:49:41.631Z,5.65
2022-08-10T19:52:19.708Z,6.13
2022-08-10T19:54:57.148Z,7.07
2022-08-10T19:57:34.555Z,5.10
2022-08-10T20:00:19.249Z,5.13
2022-08-10T20:03:10.633Z,6.18
2022-08-10T20:06:12.919Z,5.85
2022-08-10T20:08:56.754Z,3.55
2022-08-10T20:11:45.057Z,7.97
2022-08-10T20:14:22.991Z,3.83
2022-08-10T20:16:56.569Z,5.60
2022-08-10T20:19:54.046Z,5.15
2022-08-10T20:22:29.303Z,6.50
2022-08-10T20:25:05.208Z,2.95
2022-08-10T20:27:59.857Z,3.33
2022-08-10T20:30:30.136Z,5.70
2022-08-10T20:33:09.037Z,5.20
2022-08-10T20:35:49.715Z,3.45
2022-08-10T20:38:25.471Z,5.50
2022-08-10T20:41:07.402Z,4.68
2022-08-10T20:43:45.735Z,6.18
2022-08-10T20:46:23.674Z,5.13
2022-08-10T20:48:59.755Z,2.88
2022-08-10T20:51:57.500Z,4.78
2022-08-10T20:54:34.387Z,5.15
2022-08-10T20:57:55.192Z,4.25
2022-08-10T21:00:13.978Z,7.25
2022-08-10T21:05:52.721Z,5.10
2022-08-10T21:08:35.413Z,6.43
2022-08-10T21:11:12.003Z,6.03
2022-08-10T21:14:01.818Z,7.20
2022-08-10T21:16:41.388Z,5.35
2022-08-10T21:19:39.025Z,6.90
2022-08-10T21:24:52.291Z,7.60
2022-08-10T21:27:33.466Z,6.18
2022-08-10T21:30:09.244Z,6.55
2022-08-10T21:32:56.138Z,5.68
2022-08-10T21:35:37.378Z,4.90
2022-08-10T21:38:13.224Z,6.10
2022-08-10T21:41:18.689Z,5.63
2022-08-10T21:44:18.130Z,5.82
2022-08-10T21:47:41.691Z,5.00
2022-08-10T21:50:24.742Z,5.70
2022-08-10T21:53:43.859Z,8.00
2022-08-10T21:56:42.671Z,6.75
2022-08-10T21:59:34.772Z,9.90
2022-08-10T22:02:28.218Z,12.18
2022-08-10T22:05:20.211Z,13.63
2022-08-10T22:08:12.079Z,13.07
2022-08-10T22:11:02.570Z,15.10
2022-08-10T22:13:52.880Z,13.13
2022-08-10T22:16:51.226Z,15.88
2022-08-10T22:19:38.224Z,12.05
2022-08-10T22:22:28.506Z,10.70
2022-08-10T22:25:29.628Z,7.63
2022-08-10T22:28:18.150Z,11.85
2022-08-10T22:34:33.291Z,10.45
2022-08-10T22:37:36.631Z,8.23
2022-08-10T22:40:29.202Z,7.40
2022-08-10T22:43:35.859Z,6.32
2022-08-10T22:46:31.072Z,6.20
2022-08-10T22:49:02.359Z,5.55
2022-08-10T22:54:49.641Z,7.95
2022-08-10T22:57:42.009Z,5.50
2022-08-10T23:00:14.349Z,5.82
2022-08-10T23:02:52.000Z,9.45
2022-08-10T23:05:32.288Z,5.85
2022-08-10T23:08:09.474Z,5.72
2022-08-10T23:10:44.709Z,5.38
2022-08-10T23:13:23.542Z,9.70
2022-08-10T23:16:28.380Z,5.50
2022-08-10T23:19:09.446Z,7.95
2022-08-10T23:22:03.195Z,6.03
2022-08-10T23:24:38.823Z,8.18
2022-08-10T23:27:13.208Z,11.30
2022-08-10T23:30:10.237Z,10.20
2022-08-10T23:32:45.396Z,10.05
2022-08-10T23:36:30.925Z,11.65
2022-08-10T23:38:08.741Z,10.15
2022-08-10T23:40:38.396Z,10.10
2022-08-10T23:43:08.755Z,8.93
2022-08-10T23:45:53.639Z,9.57
2022-08-10T23:48:26.229Z,8.40
2022-08-10T23:51:01.573Z,9.40
2022-08-10T23:53:33.661Z,8.00
2022-08-10T23:56:07.521Z,8.60
2022-08-10T23:58:42.081Z,8.10
